createdAt,value
2023-05-16T00:01:47.600Z,0.7
2023-05-16T00:03:49.584Z,0.8
2023-05-16T00:05:54.524Z,0.7
2023-05-16T00:09:58.500Z,0.8
2023-05-16T00:12:00.451Z,0.7
2023-05-16T00:14:02.452Z,0.8
2023-05-16T00:16:05.947Z,0.8
2023-05-16T00:18:07.981Z,0.8
2023-05-16T00:20:12.969Z,0.7
2023-05-16T00:22:14.928Z,0.7
2023-05-16T00:24:16.935Z,0.7
2023-05-16T00:25:19.449Z,0.7
2023-05-16T00:29:23.381Z,0.7
2023-05-16T00:33:30.395Z,0.8
2023-05-16T00:35:32.402Z,0.7
2023-05-16T00:41:38.322Z,0.8
2023-05-16T00:43:40.358Z,0.8
2023-05-16T00:47:47.405Z,0.8
2023-05-16T00:49:49.320Z,0.8
2023-05-16T01:06:08.166Z,0.8
2023-05-16T01:08:10.172Z,0.8
2023-05-16T01:12:14.106Z,0.8
2023-05-16T01:14:16.082Z,0.8
2023-05-16T01:16:21.242Z,0.8
2023-05-16T01:18:23.105Z,0.8
2023-05-16T01:21:27.608Z,0.8
2023-05-16T01:23:29.580Z,0.8
2023-05-16T01:25:31.596Z,0.8
2023-05-16T01:29:38.733Z,0.8
2023-05-16T01:31:40.738Z,0.8
2023-05-16T01:33:42.678Z,0.8
2023-05-16T01:35:44.650Z,0.9
2023-05-16T01:37:46.618Z,0.8
2023-05-16T01:43:55.605Z,0.9
2023-05-16T01:45:57.646Z,0.9
2023-05-16T01:58:12.473Z,0.9
2023-05-16T02:00:14.460Z,0.8
2023-05-16T02:02:16.563Z,0.9
2023-05-16T02:08:22.450Z,0.9
2023-05-16T02:10:24.407Z,0.9
2023-05-16T02:14:31.417Z,0.9
2023-05-16T02:17:35.949Z,0.8
2023-05-16T02:19:37.914Z,0.9
2023-05-16T02:21:39.838Z,0.9
2023-05-16T02:25:46.875Z,0.9
2023-05-16T02:40:03.819Z,0.9
2023-05-16T02:42:05.765Z,0.9
2023-05-16T02:54:21.092Z,0.9
2023-05-16T02:56:23.197Z,0.7
2023-05-16T02:58:25.087Z,0.9
2023-05-16T03:04:31.086Z,1
2023-05-16T03:06:33.044Z,1
2023-05-16T03:08:38.078Z,0.9
2023-05-16T03:10:40.023Z,1
2023-05-16T03:12:42.078Z,1
2023-05-16T03:15:03.000Z,1
2023-05-16T03:19:07.051Z,1
2023-05-16T03:21:11.978Z,1
2023-05-16T03:23:13.956Z,0.9
2023-05-16T03:25:15.995Z,0.9
2023-05-16T03:27:18.052Z,0.9
2023-05-16T03:29:20.142Z,0.9
2023-05-16T03:31:22.246Z,1
2023-05-16T03:33:24.300Z,0.8
2023-05-16T03:37:31.240Z,1
2023-05-16T03:39:33.312Z,1
2023-05-16T03:41:35.390Z,0.9
2023-05-16T03:45:39.513Z,0.9
2023-05-16T03:51:48.794Z,0.9
2023-05-16T03:53:50.903Z,0.9
2023-05-16T03:55:52.976Z,0.9
2023-05-16T03:59:57.080Z,0.9
2023-05-16T04:01:59.156Z,0.9
2023-05-16T04:04:04.344Z,0.8
2023-05-16T04:09:11.097Z,0.9
2023-05-16T04:11:13.194Z,0.9
2023-05-16T04:13:15.298Z,1
2023-05-16T04:15:17.306Z,1
2023-05-16T04:17:22.582Z,0.9
2023-05-16T04:19:24.730Z,0.9
2023-05-16T04:21:26.556Z,0.9
2023-05-16T04:23:28.643Z,1
2023-05-16T04:29:34.618Z,0.9
2023-05-16T04:31:39.746Z,0.9
2023-05-16T04:33:41.618Z,0.9
2023-05-16T04:43:51.670Z,0.9
2023-05-16T04:45:56.744Z,0.9
2023-05-16T04:50:00.664Z,0.8
2023-05-16T04:54:04.594Z,0.8
2023-05-16T04:56:06.597Z,0.8
2023-05-16T04:58:08.570Z,0.8
2023-05-16T05:00:13.625Z,0.8
2023-05-16T05:02:15.694Z,0.8
2023-05-16T05:04:17.595Z,0.8
2023-05-16T05:05:20.267Z,0.7
2023-05-16T05:07:22.084Z,0.7
2023-05-16T05:09:24.076Z,0.7
2023-05-16T05:11:26.055Z,0.8
2023-05-16T05:13:31.074Z,0.7
2023-05-16T05:15:33.072Z,0.7
2023-05-16T05:17:35.273Z,0.7
2023-05-16T05:21:39.019Z,0.7
2023-05-16T05:23:41.025Z,0.6
2023-05-16T05:25:42.976Z,0.7
2023-05-16T05:27:48.050Z,0.6
2023-05-16T05:29:50.048Z,0.6
2023-05-16T05:31:52.092Z,0.6
2023-05-16T05:33:54.024Z,0.6
2023-05-16T05:35:56.010Z,0.6
2023-05-16T05:37:57.996Z,0.6
2023-05-16T05:39:59.995Z,0.6
2023-05-16T05:42:05.044Z,0.5
2023-05-16T05:44:07.061Z,0.6
2023-05-16T05:46:09.203Z,0.6
2023-05-16T05:52:15.021Z,0.5
2023-05-16T05:54:17.036Z,0.5
2023-05-16T05:58:24.085Z,0.4
2023-05-16T06:01:28.603Z,0.4
2023-05-16T06:03:30.667Z,0.5
2023-05-16T06:07:36.143Z,0.4
2023-05-16T06:09:41.151Z,0.4
2023-05-16T06:19:51.107Z,0.4
2023-05-16T06:23:58.158Z,0.4
2023-05-16T06:26:00.185Z,0.4
2023-05-16T06:28:02.125Z,0.4
2023-05-16T06:32:06.137Z,0.4
2023-05-16T06:38:15.189Z,0.4
2023-05-16T06:40:17.141Z,0.4
2023-05-16T06:42:19.176Z,0.4
2023-05-16T06:44:21.186Z,0.5
2023-05-16T06:46:23.262Z,0.4
2023-05-16T06:48:25.235Z,0.4
2023-05-16T06:50:27.277Z,0.4
2023-05-16T06:54:34.232Z,0.4
2023-05-16T06:56:36.230Z,0.4
2023-05-16T06:58:58.945Z,0.3
2023-05-16T07:01:01.234Z,0.4
2023-05-16T07:11:14.025Z,0.4
2023-05-16T07:13:15.985Z,0.4
2023-05-16T07:15:18.029Z,0.5
2023-05-16T07:17:20.002Z,0.5
2023-05-16T07:21:27.122Z,0.5
2023-05-16T07:23:29.057Z,0.5
2023-05-16T07:25:31.090Z,0.5
2023-05-16T07:27:33.060Z,0.5
2023-05-16T07:29:35.085Z,0.5
2023-05-16T07:31:37.095Z,0.5
2023-05-16T07:33:42.141Z,0.5
2023-05-16T07:35:44.089Z,0.5
2023-05-16T07:37:46.114Z,0.4
2023-05-16T07:39:48.094Z,0.5
2023-05-16T07:41:50.078Z,0.5
2023-05-16T07:45:54.111Z,0.5
2023-05-16T07:47:59.225Z,0.5
2023-05-16T07:53:05.658Z,0.5
2023-05-16T07:55:07.628Z,0.4
2023-05-16T08:01:16.664Z,0.4
2023-05-16T08:05:20.716Z,0.4
2023-05-16T08:13:28.608Z,0.4
2023-05-16T08:15:33.675Z,0.4
2023-05-16T08:17:35.810Z,0.4
2023-05-16T08:21:39.702Z,0.4
2023-05-16T08:23:41.689Z,0.4
2023-05-16T08:25:43.669Z,0.4
2023-05-16T08:29:50.718Z,0.4
2023-05-16T08:31:52.743Z,0.4
2023-05-16T08:35:56.681Z,0.4
2023-05-16T08:37:58.686Z,0.4
2023-05-16T08:40:00.705Z,0.3
2023-05-16T08:42:02.643Z,0.4
2023-05-16T08:44:08.723Z,0.4
2023-05-16T08:46:09.682Z,0.4
2023-05-16T08:48:11.796Z,0.3
2023-05-16T08:49:14.223Z,0.3
2023-05-16T08:51:16.212Z,0.3
2023-05-16T08:53:18.165Z,0.4
2023-05-16T08:55:20.213Z,0.4
2023-05-16T08:57:25.238Z,0.4
2023-05-16T08:59:27.219Z,0.4
2023-05-16T09:01:29.301Z,0.3
2023-05-16T09:03:31.267Z,0.3
2023-05-16T09:05:33.201Z,0.3
2023-05-16T09:07:35.218Z,0.4
2023-05-16T09:11:42.242Z,0.4
2023-05-16T09:13:44.247Z,0.3
2023-05-16T09:15:46.258Z,0.4
2023-05-16T09:17:48.383Z,0.3
2023-05-16T09:19:50.213Z,0.4
2023-05-16T09:21:52.229Z,0.4
2023-05-16T09:23:54.183Z,0.4
2023-05-16T09:26:00.250Z,0.4
2023-05-16T09:28:03.123Z,0.3
2023-05-16T09:30:04.147Z,0.3
2023-05-16T09:32:06.129Z,0.3
2023-05-16T09:34:08.138Z,0.4
2023-05-16T09:36:10.118Z,0.3
2023-05-16T09:38:12.154Z,0.4
2023-05-16T09:40:17.194Z,0.3
2023-05-16T09:42:19.166Z,0.4
2023-05-16T09:44:21.182Z,0.4
2023-05-16T09:45:23.750Z,0.4
2023-05-16T10:09:53.716Z,0.4
2023-05-16T10:13:57.669Z,0.3
2023-05-16T10:15:59.732Z,0.4
2023-05-16T10:18:01.797Z,0.3
2023-05-16T10:22:08.688Z,0.3
2023-05-16T10:24:10.662Z,0.3
2023-05-16T10:26:12.669Z,0.3
2023-05-16T10:30:16.637Z,0.3
2023-05-16T10:32:18.666Z,0.3
2023-05-16T10:34:20.608Z,0.3
2023-05-16T10:36:25.638Z,0.3
2023-05-16T10:38:27.638Z,0.3
2023-05-16T10:40:29.645Z,0.4
2023-05-16T10:42:52.432Z,0.3
2023-05-16T10:45:05.102Z,0.3
2023-05-16T10:49:01.449Z,0.3
2023-05-16T10:51:03.456Z,0.3
2023-05-16T10:53:05.408Z,0.3
2023-05-16T10:55:07.376Z,0.3
2023-05-16T10:57:09.355Z,0.3
2023-05-16T10:59:11.357Z,0.3
2023-05-16T11:01:13.380Z,0.3
2023-05-16T11:07:22.297Z,0.3
2023-05-16T11:15:30.431Z,0.3
2023-05-16T11:17:35.288Z,0.3
2023-05-16T11:19:37.478Z,0.3
2023-05-16T11:21:39.176Z,0.3
2023-05-16T11:25:43.128Z,0.3
2023-05-16T11:27:45.124Z,0.3
2023-05-16T11:29:47.076Z,0.3
2023-05-16T11:36:58.555Z,0.3
2023-05-16T11:39:00.544Z,0.3
2023-05-16T11:41:02.509Z,0.3
2023-05-16T11:47:11.571Z,0.3
2023-05-16T11:49:13.475Z,0.3
2023-05-16T11:51:15.446Z,0.3
2023-05-16T11:53:17.405Z,0.3
2023-05-16T11:55:32.392Z,0.3
2023-05-16T11:57:21.365Z,0.3
2023-05-16T11:59:27.908Z,0.2
2023-05-16T12:01:30.395Z,0.3
2023-05-16T12:03:32.976Z,0.3
2023-05-16T12:05:34.627Z,0.3
2023-05-16T12:07:35.770Z,0.3
2023-05-16T12:09:37.782Z,0.3
2023-05-16T12:11:39.738Z,0.3
2023-05-16T12:13:44.767Z,0.3
2023-05-16T12:15:46.738Z,0.4
2023-05-16T12:17:48.758Z,0.3
2023-05-16T12:19:50.681Z,0.3
2023-05-16T12:21:52.624Z,0.3
2023-05-16T12:23:54.593Z,0.3
2023-05-16T12:25:56.559Z,0.3
2023-05-16T12:28:01.613Z,0.3
2023-05-16T12:30:03.577Z,0.3
2023-05-16T12:32:05.550Z,0.2
2023-05-16T12:33:08.499Z,0.3
2023-05-16T12:39:13.940Z,0.3
2023-05-16T12:41:18.988Z,0.3
2023-05-16T12:43:20.963Z,0.3
2023-05-16T12:45:22.890Z,0.3
2023-05-16T12:47:24.895Z,0.3
2023-05-16T12:49:26.839Z,0.3
2023-05-16T12:53:30.750Z,0.3
2023-05-16T12:57:39.342Z,0.3
2023-05-16T12:59:39.717Z,0.3
2023-05-16T13:01:41.695Z,0.2
2023-05-16T13:03:43.719Z,0.3
2023-05-16T13:05:45.575Z,0.2
2023-05-16T13:09:52.576Z,0.2
2023-05-16T13:11:54.542Z,0.3
2023-05-16T13:13:56.523Z,0.3
2023-05-16T13:15:58.507Z,0.3
2023-05-16T13:18:00.509Z,0.3
2023-05-16T13:20:02.476Z,0.3
2023-05-16T13:22:04.425Z,0.3
2023-05-16T13:24:09.465Z,0.3
2023-05-16T13:26:11.456Z,0.3
2023-05-16T13:28:13.423Z,0.3
2023-05-16T13:29:15.964Z,0.3
2023-05-16T13:35:21.887Z,0.3
2023-05-16T13:37:26.971Z,0.3
2023-05-16T13:39:28.924Z,0.3
2023-05-16T13:41:30.925Z,0.3
2023-05-16T13:43:32.910Z,0.3
2023-05-16T13:51:43.884Z,0.3
2023-05-16T13:53:45.870Z,0.4
2023-05-16T14:01:53.978Z,0.3
2023-05-16T14:03:55.826Z,0.4
2023-05-16T14:06:00.866Z,0.3
2023-05-16T14:08:02.834Z,0.3
2023-05-16T14:10:04.820Z,0.3
2023-05-16T14:12:06.812Z,0.3
2023-05-16T14:14:08.755Z,0.3
2023-05-16T14:16:10.792Z,0.3
2023-05-16T14:18:12.793Z,0.3
2023-05-16T14:20:17.791Z,0.3
2023-05-16T14:22:19.801Z,0.4
2023-05-16T14:24:21.771Z,0.3
2023-05-16T14:26:38.752Z,0.3
2023-05-16T14:28:40.740Z,0.4
2023-05-16T14:30:42.699Z,0.3
2023-05-16T14:32:47.826Z,0.3
2023-05-16T14:34:49.771Z,0.3
2023-05-16T14:36:51.745Z,0.3
2023-05-16T14:38:53.747Z,0.3
2023-05-16T14:40:55.698Z,0.3
2023-05-16T14:42:57.715Z,0.3
2023-05-16T14:44:59.683Z,0.3
2023-05-16T14:47:04.730Z,0.3
2023-05-16T14:49:06.733Z,0.3
2023-05-16T14:51:08.711Z,0.6
2023-05-16T14:53:10.707Z,0.3
2023-05-16T14:59:16.659Z,0.3
2023-05-16T15:01:21.777Z,0.3
2023-05-16T15:05:25.738Z,0.3
2023-05-16T15:09:29.662Z,0.4
2023-05-16T15:11:31.633Z,0.3
2023-05-16T15:13:33.647Z,0.3
2023-05-16T15:19:42.674Z,0.3
2023-05-16T15:20:45.163Z,0.3
2023-05-16T15:24:49.183Z,0.3
2023-05-16T15:26:51.154Z,0.3
2023-05-16T15:28:56.195Z,0.4
2023-05-16T15:30:58.202Z,0.3
2023-05-16T15:33:01.041Z,0.3
2023-05-16T15:37:05.037Z,0.3
2023-05-16T15:39:06.984Z,0.3
2023-05-16T15:41:23.898Z,0.4
2023-05-16T15:43:14.032Z,0.3
2023-05-16T15:45:16.023Z,0.4
2023-05-16T15:47:17.985Z,0.3
2023-05-16T15:49:19.994Z,0.3
2023-05-16T15:51:21.952Z,0.3
2023-05-16T15:53:23.950Z,0.4
2023-05-16T15:55:26.036Z,0.3
2023-05-16T15:57:30.996Z,0.3
2023-05-16T15:59:32.990Z,0.4
2023-05-16T16:01:35.070Z,0.3
2023-05-16T16:03:37.066Z,0.4
2023-05-16T16:05:38.971Z,0.4
2023-05-16T16:07:40.946Z,0.4
2023-05-16T16:09:42.920Z,0.4
2023-05-16T16:11:48.030Z,0.3
2023-05-16T16:16:54.709Z,0.4
2023-05-16T16:18:56.528Z,0.4
2023-05-16T16:25:05.573Z,0.4
2023-05-16T16:27:07.577Z,0.3
2023-05-16T16:31:11.590Z,0.4
2023-05-16T16:33:13.615Z,0.4
2023-05-16T16:49:32.618Z,0.4
2023-05-16T16:53:39.635Z,0.4
2023-05-16T17:05:51.628Z,0.4
2023-05-16T17:07:56.646Z,0.4
2023-05-16T17:13:03.196Z,0.4
2023-05-16T17:15:05.295Z,0.4
2023-05-16T17:17:07.329Z,0.4
2023-05-16T17:19:09.308Z,0.4
2023-05-16T17:23:16.219Z,0.4
2023-05-16T17:25:18.242Z,0.4
2023-05-16T17:29:22.247Z,0.4
2023-05-16T17:33:26.246Z,0.4
2023-05-16T17:59:59.776Z,0.5
2023-05-16T18:02:01.782Z,0.5
2023-05-16T18:08:10.843Z,0.5
2023-05-16T18:10:40.145Z,0.5
2023-05-16T18:12:33.519Z,0.5
2023-05-16T18:14:35.475Z,0.5
2023-05-16T18:16:40.532Z,0.5
2023-05-16T18:18:42.592Z,0.5
2023-05-16T18:20:44.539Z,0.5
2023-05-16T18:22:46.544Z,0.5
2023-05-16T18:24:48.560Z,0.5
2023-05-16T18:28:52.563Z,0.5
2023-05-16T18:30:57.628Z,0.5
2023-05-16T18:35:01.679Z,0.5
2023-05-16T18:41:07.646Z,0.5
2023-05-16T18:45:14.693Z,0.5
2023-05-16T18:47:16.806Z,0.5
2023-05-16T18:49:18.660Z,0.5
2023-05-16T18:51:20.681Z,0.5
2023-05-16T18:53:22.693Z,0.5
2023-05-16T18:55:24.745Z,0.6
2023-05-16T18:57:26.693Z,0.6
2023-05-16T18:59:31.758Z,0.6
2023-05-16T19:01:33.745Z,0.5
2023-05-16T19:03:35.859Z,0.5
2023-05-16T19:04:38.363Z,0.5
2023-05-16T19:06:40.297Z,0.5
2023-05-16T19:08:48.146Z,0.6
2023-05-16T19:14:51.330Z,0.5
2023-05-16T19:16:53.296Z,0.6
2023-05-16T19:22:59.322Z,0.5
2023-05-16T19:27:06.397Z,0.6
2023-05-16T19:31:10.382Z,0.7
2023-05-16T19:33:12.385Z,0.5
2023-05-16T19:37:16.385Z,0.6
2023-05-16T19:41:23.420Z,0.6
2023-05-16T19:43:25.430Z,0.7
2023-05-16T19:45:27.539Z,0.6
2023-05-16T19:47:29.521Z,0.6
2023-05-16T19:49:31.536Z,0.7
2023-05-16T19:51:40.903Z,0.6
2023-05-16T19:53:35.425Z,0.6
2023-05-16T19:55:40.454Z,0.5
2023-05-16T19:57:42.437Z,0.5
2023-05-16T19:59:44.466Z,0.6
2023-05-16T20:00:47.029Z,0.7
2023-05-16T20:08:58.051Z,0.6
2023-05-16T20:10:59.988Z,0.7
2023-05-16T20:23:15.039Z,0.6
2023-05-16T20:25:17.202Z,0.6
2023-05-16T20:31:23.006Z,0.7
2023-05-16T20:33:25.134Z,0.7
2023-05-16T20:35:27.185Z,0.7
2023-05-16T20:37:32.046Z,0.7
2023-05-16T20:39:34.064Z,0.7
2023-05-16T20:41:36.050Z,0.7
2023-05-16T20:43:38.033Z,0.7
2023-05-16T20:45:40.023Z,0.7
2023-05-16T20:47:42.074Z,0.7
2023-05-16T20:49:44.016Z,0.7
2023-05-16T20:51:49.067Z,0.7
2023-05-16T20:53:51.059Z,0.7
2023-05-16T20:55:53.052Z,0.7
2023-05-16T20:56:55.619Z,0.6
2023-05-16T20:58:57.570Z,0.6
2023-05-16T21:00:59.551Z,0.6
2023-05-16T21:21:25.576Z,0.7
2023-05-16T21:25:29.688Z,0.7
2023-05-16T21:27:31.574Z,0.6
2023-05-16T21:31:35.560Z,0.7
2023-05-16T21:33:40.673Z,0.7
2023-05-16T21:35:42.590Z,0.6
2023-05-16T21:37:44.558Z,0.7
2023-05-16T21:39:46.553Z,0.5
2023-05-16T21:41:48.559Z,0.6
2023-05-16T21:43:50.521Z,0.7
2023-05-16T22:18:54.122Z,0.7
2023-05-16T22:20:56.014Z,0.7
2023-05-16T22:24:59.999Z,0.5
2023-05-16T22:27:01.998Z,0.7
2023-05-16T22:29:07.020Z,0.6
2023-05-16T22:31:08.970Z,0.7
2023-05-16T22:33:11.127Z,0.7
2023-05-16T22:37:14.944Z,0.7
2023-05-16T22:39:16.936Z,0.8
2023-05-16T22:41:18.915Z,0.8
2023-05-16T22:43:23.940Z,0.7
2023-05-16T22:45:26.144Z,0.7
2023-05-16T22:50:32.454Z,0.7
2023-05-16T22:54:36.385Z,0.7
2023-05-16T22:56:41.438Z,0.6
2023-05-16T22:58:43.408Z,0.7
2023-05-16T23:00:45.388Z,0.7
2023-05-16T23:02:47.460Z,0.8
2023-05-16T23:04:49.387Z,0.7
2023-05-16T23:06:51.352Z,0.7
2023-05-16T23:08:53.344Z,0.7
2023-05-16T23:10:58.348Z,0.7
2023-05-16T23:13:00.342Z,0.7
2023-05-16T23:15:02.317Z,0.7
2023-05-16T23:17:04.289Z,0.8
2023-05-16T23:19:09.084Z,0.8
2023-05-16T23:21:08.285Z,0.7
2023-05-16T23:23:10.287Z,0.8
2023-05-16T23:25:15.295Z,0.7
2023-05-16T23:27:17.277Z,0.7
2023-05-16T23:29:19.255Z,0.8
2023-05-16T23:31:21.244Z,0.8
2023-05-16T23:33:23.252Z,0.7
2023-05-16T23:35:25.293Z,0.8
2023-05-16T23:37:27.176Z,0.7
2023-05-16T23:39:32.281Z,0.8
2023-05-16T23:43:37.642Z,0.7
2023-05-16T23:44:40.174Z,0.7
2023-05-16T23:48:44.258Z,0.8
2023-05-16T23:50:46.102Z,0.8
2023-05-16T23:54:53.140Z,0.8
2023-05-16T23:56:55.099Z,0.8
2023-05-16T23:58:57.089Z,0.8
